createdAt,value
2022-07-25T00:00:49.709Z,12.90
2022-07-25T00:01:49.584Z,11.80
2022-07-25T00:02:50.294Z,8.40
2022-07-25T00:03:51.275Z,9.10
2022-07-25T00:04:50.352Z,11.00
2022-07-25T00:05:50.349Z,14.20
2022-07-25T00:06:51.458Z,11.00
2022-07-25T00:07:50.133Z,8.70
2022-07-25T00:08:51.152Z,11.20
2022-07-25T00:09:50.238Z,8.90
2022-07-25T00:10:56.441Z,8.90
2022-07-25T00:11:55.063Z,10.60
2022-07-25T00:13:11.593Z,12.60
2022-07-25T00:13:49.565Z,9.30
2022-07-25T00:16:23.084Z,12.10
2022-07-25T00:17:03.000Z,11.40
2022-07-25T00:18:00.269Z,11.80
2022-07-25T00:19:01.886Z,10.30
2022-07-25T00:20:01.975Z,9.40
2022-07-25T00:21:01.898Z,15.10
2022-07-25T00:22:00.476Z,9.50
2022-07-25T00:23:01.098Z,13.50
2022-07-25T00:24:05.178Z,12.80
2022-07-25T00:25:02.222Z,11.50
2022-07-25T00:26:00.195Z,11.80
2022-07-25T00:27:00.403Z,12.80
2022-07-25T00:28:00.435Z,10.40
2022-07-25T00:29:01.489Z,13.00
2022-07-25T00:30:00.184Z,9.10
2022-07-25T00:31:00.963Z,10.20
2022-07-25T00:32:05.173Z,12.20
2022-07-25T00:33:00.910Z,9.20
2022-07-25T00:34:00.957Z,14.00
2022-07-25T00:35:02.616Z,12.30
2022-07-25T00:36:00.781Z,10.10
2022-07-25T00:37:01.741Z,10.20
2022-07-25T00:38:01.927Z,9.90
2022-07-25T00:39:00.899Z,10.10
2022-07-25T00:40:00.658Z,9.70
2022-07-25T00:41:00.808Z,12.90
2022-07-25T00:42:06.270Z,15.60
2022-07-25T00:43:00.258Z,11.50
2022-07-25T00:44:00.831Z,14.00
2022-07-25T00:45:00.532Z,13.30
2022-07-25T00:46:10.110Z,11.00
2022-07-25T00:47:01.667Z,10.10
2022-07-25T00:48:00.153Z,9.90
2022-07-25T00:49:00.247Z,10.60
2022-07-25T00:50:01.688Z,12.40
2022-07-25T00:51:00.383Z,11.60
2022-07-25T00:52:00.074Z,12.40
2022-07-25T00:53:01.769Z,11.60
2022-07-25T00:53:59.775Z,10.80
2022-07-25T00:54:59.784Z,10.00
2022-07-25T00:55:59.992Z,11.70
2022-07-25T00:57:21.478Z,11.00
2022-07-25T00:58:00.011Z,10.20
2022-07-25T00:58:59.716Z,11.20
2022-07-25T00:59:59.714Z,11.40
2022-07-25T01:01:00.451Z,11.40
2022-07-25T01:02:03.879Z,13.10
2022-07-25T01:03:04.275Z,9.60
2022-07-25T01:04:04.717Z,11.20
2022-07-25T01:05:01.428Z,10.40
2022-07-25T01:05:59.659Z,10.50
2022-07-25T01:06:59.863Z,13.30
2022-07-25T01:08:01.980Z,10.40
2022-07-25T01:09:00.497Z,13.40
2022-07-25T01:10:01.557Z,11.00
2022-07-25T01:11:04.766Z,11.50
2022-07-25T01:12:01.439Z,11.10
2022-07-25T01:13:04.312Z,14.00
2022-07-25T01:14:05.458Z,10.70
2022-07-25T01:14:59.822Z,13.50
2022-07-25T01:16:04.091Z,10.70
2022-07-25T01:16:59.729Z,10.10
2022-07-25T01:17:59.871Z,11.80
2022-07-25T01:19:02.740Z,13.30
2022-07-25T01:20:04.660Z,11.20
2022-07-25T01:21:01.357Z,10.50
2022-07-25T01:22:00.285Z,10.20
2022-07-25T01:23:00.291Z,11.10
2022-07-25T01:24:00.005Z,12.90
2022-07-25T01:25:04.273Z,11.70
2022-07-25T01:26:00.105Z,10.30
2022-07-25T01:27:01.167Z,12.30
2022-07-25T01:28:00.964Z,9.80
2022-07-25T01:29:22.378Z,10.10
2022-07-25T01:30:00.602Z,12.10
2022-07-25T01:31:04.197Z,11.50
2022-07-25T01:32:03.254Z,10.50
2022-07-25T01:33:00.145Z,10.30
2022-07-25T01:34:00.571Z,11.80
2022-07-25T01:35:01.712Z,10.10
2022-07-25T01:36:01.298Z,10.40
2022-07-25T01:36:59.466Z,11.10
2022-07-25T01:37:59.473Z,13.20
2022-07-25T01:39:22.230Z,13.50
2022-07-25T01:40:00.871Z,10.80
2022-07-25T01:41:00.333Z,17.40
2022-07-25T01:41:59.122Z,12.00
2022-07-25T01:42:59.766Z,10.70
2022-07-25T01:43:59.069Z,13.40
2022-07-25T01:44:59.083Z,10.90
2022-07-25T01:45:59.073Z,10.70
2022-07-25T01:46:59.081Z,11.70
2022-07-25T01:47:59.034Z,12.80
2022-07-25T01:48:59.099Z,13.30
2022-07-25T01:49:59.002Z,11.40
2022-07-25T01:50:58.996Z,10.50
2022-07-25T01:51:58.983Z,12.30
2022-07-25T01:52:58.979Z,11.50
2022-07-25T01:53:58.958Z,14.10
2022-07-25T01:54:58.935Z,12.30
2022-07-25T01:55:58.914Z,13.20
2022-07-25T01:56:58.917Z,13.50
2022-07-25T01:57:58.915Z,12.50
2022-07-25T01:58:58.888Z,14.50
2022-07-25T01:59:58.887Z,12.90
2022-07-25T02:00:58.910Z,12.10
2022-07-25T02:01:58.942Z,14.00
2022-07-25T02:02:58.825Z,10.30
2022-07-25T02:03:58.828Z,11.40
2022-07-25T02:04:58.872Z,11.00
2022-07-25T02:05:58.791Z,12.80
2022-07-25T02:06:58.777Z,12.70
2022-07-25T02:07:58.750Z,14.30
2022-07-25T02:08:58.764Z,10.90
2022-07-25T02:09:58.729Z,11.20
2022-07-25T02:10:58.734Z,12.30
2022-07-25T02:11:58.718Z,9.80
2022-07-25T02:12:58.690Z,11.70
2022-07-25T02:13:58.705Z,12.70
2022-07-25T02:14:58.691Z,13.60
2022-07-25T02:15:58.649Z,12.10
2022-07-25T02:16:58.691Z,12.00
2022-07-25T02:17:58.621Z,11.50
2022-07-25T02:18:58.638Z,10.80
2022-07-25T02:19:58.606Z,11.90
2022-07-25T02:20:58.606Z,10.50
2022-07-25T02:21:58.581Z,13.00
2022-07-25T02:22:58.555Z,11.30
2022-07-25T02:23:58.547Z,10.80
2022-07-25T02:24:58.549Z,11.00
2022-07-25T02:25:58.515Z,16.70
2022-07-25T02:26:58.528Z,11.40
2022-07-25T02:27:58.509Z,12.70
2022-07-25T02:28:58.477Z,11.90
2022-07-25T02:29:58.470Z,14.90
2022-07-25T02:30:58.472Z,11.10
2022-07-25T02:31:58.470Z,12.10
2022-07-25T02:32:58.441Z,12.60
2022-07-25T02:33:58.409Z,11.30
2022-07-25T02:34:58.411Z,11.30
2022-07-25T02:35:58.398Z,11.20
2022-07-25T02:36:58.369Z,12.30
2022-07-25T02:37:58.379Z,12.00
2022-07-25T02:38:58.366Z,11.80
2022-07-25T02:39:58.345Z,15.80
2022-07-25T02:40:58.323Z,12.10
2022-07-25T02:41:58.313Z,11.90
2022-07-25T02:42:58.291Z,15.70
2022-07-25T02:43:58.299Z,12.50
2022-07-25T02:44:58.278Z,12.10
2022-07-25T02:45:58.289Z,13.10
2022-07-25T02:46:58.247Z,13.10
2022-07-25T02:47:58.256Z,12.40
2022-07-25T02:48:58.229Z,15.80
2022-07-25T02:49:58.217Z,11.50
2022-07-25T02:50:58.185Z,13.30
2022-07-25T02:51:58.164Z,12.10
2022-07-25T02:52:58.170Z,12.10
2022-07-25T02:53:59.058Z,12.10
2022-07-25T02:54:58.150Z,14.90
2022-07-25T02:55:58.115Z,12.90
2022-07-25T02:56:58.122Z,11.80
2022-07-25T02:57:58.088Z,12.30
2022-07-25T02:58:58.092Z,12.00
2022-07-25T02:59:58.073Z,14.70
2022-07-25T03:00:58.134Z,14.20
2022-07-25T03:01:58.043Z,12.70
2022-07-25T03:02:58.020Z,12.60
2022-07-25T03:03:58.086Z,13.80
2022-07-25T03:04:58.011Z,12.00
2022-07-25T03:05:57.972Z,11.90
2022-07-25T03:06:57.985Z,11.40
2022-07-25T03:07:57.966Z,12.20
2022-07-25T03:08:57.943Z,11.90
2022-07-25T03:09:57.925Z,14.10
2022-07-25T03:10:57.924Z,13.70
2022-07-25T03:11:57.970Z,11.60
2022-07-25T03:12:57.883Z,12.10
2022-07-25T03:13:57.894Z,11.30
2022-07-25T03:14:57.854Z,12.00
2022-07-25T03:15:57.835Z,10.90
2022-07-25T03:16:57.935Z,11.70
2022-07-25T03:17:57.831Z,11.10
2022-07-25T03:18:57.818Z,11.30
2022-07-25T03:19:57.804Z,10.40
2022-07-25T03:20:57.775Z,13.10
2022-07-25T03:21:57.768Z,10.70
2022-07-25T03:22:57.746Z,11.50
2022-07-25T03:23:57.735Z,10.60
2022-07-25T03:24:57.742Z,12.00
2022-07-25T03:25:57.698Z,10.50
2022-07-25T03:26:57.712Z,10.80
2022-07-25T03:29:21.891Z,10.50
2022-07-25T03:30:08.694Z,10.20
2022-07-25T03:31:12.568Z,9.80
2022-07-25T03:32:09.025Z,10.30
2022-07-25T03:33:08.896Z,9.70
2022-07-25T03:34:12.167Z,9.60
2022-07-25T03:35:12.582Z,9.60
2022-07-25T03:36:08.803Z,12.10
2022-07-25T03:37:08.809Z,9.90
2022-07-25T03:38:14.963Z,13.00
2022-07-25T03:39:09.451Z,9.20
2022-07-25T03:40:08.717Z,9.80
2022-07-25T03:41:09.443Z,9.60
2022-07-25T03:42:08.562Z,10.10
2022-07-25T03:43:09.394Z,11.70
2022-07-25T03:44:09.796Z,10.20
2022-07-25T03:45:14.291Z,12.00
2022-07-25T03:46:12.448Z,9.70
2022-07-25T03:47:09.708Z,11.80
2022-07-25T03:48:19.387Z,11.40
2022-07-25T03:49:09.691Z,9.90
2022-07-25T03:50:09.214Z,9.70
2022-07-25T03:51:08.346Z,9.80
2022-07-25T03:52:09.327Z,11.00
2022-07-25T03:53:09.164Z,9.70
2022-07-25T03:54:09.557Z,9.70
2022-07-25T03:55:09.999Z,9.20
2022-07-25T03:56:10.039Z,9.70
2022-07-25T03:57:08.618Z,9.60
2022-07-25T03:58:12.446Z,10.40
2022-07-25T03:59:09.066Z,9.30
2022-07-25T04:00:09.899Z,10.80
2022-07-25T04:01:09.066Z,9.60
2022-07-25T04:02:08.488Z,10.20
2022-07-25T04:03:10.988Z,9.70
2022-07-25T04:04:10.020Z,10.00
2022-07-25T04:05:08.152Z,10.00
2022-07-25T04:06:09.923Z,10.30
2022-07-25T04:07:08.121Z,10.30
2022-07-25T04:08:08.091Z,9.10
2022-07-25T04:09:08.075Z,9.50
2022-07-25T04:10:08.202Z,10.30
2022-07-25T04:11:08.045Z,12.20
2022-07-25T04:12:08.022Z,9.70
2022-07-25T04:13:08.024Z,9.40
2022-07-25T04:14:08.317Z,9.40
2022-07-25T04:15:08.000Z,9.80
2022-07-25T04:16:11.657Z,9.50
2022-07-25T04:17:09.032Z,9.60
2022-07-25T04:18:07.968Z,10.90
2022-07-25T04:19:07.946Z,10.90
2022-07-25T04:20:07.955Z,10.20
2022-07-25T04:21:07.915Z,10.50
2022-07-25T04:22:07.910Z,9.40
2022-07-25T04:23:07.884Z,8.70
2022-07-25T04:24:08.119Z,9.60
2022-07-25T04:25:07.869Z,12.30
2022-07-25T04:26:07.836Z,12.30
2022-07-25T04:27:07.951Z,11.90
2022-07-25T04:28:07.822Z,10.60
2022-07-25T04:29:07.796Z,9.20
2022-07-25T04:30:07.792Z,8.50
2022-07-25T04:31:07.768Z,9.90
2022-07-25T04:32:07.806Z,8.50
2022-07-25T04:33:07.791Z,9.00
2022-07-25T04:34:08.244Z,8.50
2022-07-25T04:35:07.731Z,8.50
2022-07-25T04:36:07.726Z,9.80
2022-07-25T04:37:07.699Z,9.50
2022-07-25T04:38:12.000Z,8.60
2022-07-25T04:39:07.661Z,9.90
2022-07-25T04:40:07.651Z,10.10
2022-07-25T04:41:07.651Z,8.70
2022-07-25T04:42:07.634Z,12.40
2022-07-25T04:43:07.626Z,9.70
2022-07-25T04:44:08.078Z,9.10
2022-07-25T04:45:07.573Z,10.40
2022-07-25T04:46:07.746Z,9.00
2022-07-25T04:47:07.556Z,8.90
2022-07-25T04:48:07.549Z,8.50
2022-07-25T04:49:07.577Z,10.20
2022-07-25T04:50:07.559Z,8.50
2022-07-25T04:51:07.498Z,9.30
2022-07-25T04:52:07.513Z,8.50
2022-07-25T04:53:07.488Z,8.70
2022-07-25T04:54:07.737Z,8.90
2022-07-25T04:55:07.467Z,7.80
2022-07-25T04:56:07.450Z,8.70
2022-07-25T04:57:07.419Z,7.70
2022-07-25T04:58:07.422Z,7.40
2022-07-25T04:59:07.428Z,7.40
2022-07-25T05:00:07.395Z,9.30
2022-07-25T05:01:07.492Z,7.70
2022-07-25T05:02:07.396Z,11.00
2022-07-25T05:03:07.345Z,7.80
2022-07-25T05:04:07.776Z,7.40
2022-07-25T05:05:07.312Z,9.50
2022-07-25T05:06:07.300Z,8.10
2022-07-25T05:07:07.366Z,8.40
2022-07-25T05:08:07.323Z,11.00
2022-07-25T05:09:07.269Z,9.80
2022-07-25T05:10:07.299Z,9.70
2022-07-25T05:11:07.253Z,7.10
2022-07-25T05:12:07.243Z,8.10
2022-07-25T05:13:07.248Z,9.60
2022-07-25T05:14:07.702Z,9.70
2022-07-25T05:15:07.212Z,8.50
2022-07-25T05:16:07.266Z,7.50
2022-07-25T05:17:07.176Z,8.20
2022-07-25T05:18:07.202Z,7.00
2022-07-25T05:19:07.145Z,7.50
2022-07-25T05:20:07.138Z,7.10
2022-07-25T05:21:07.135Z,7.60
2022-07-25T05:22:07.111Z,8.70
2022-07-25T05:23:07.091Z,6.90
2022-07-25T05:24:07.480Z,6.80
2022-07-25T05:25:07.076Z,7.30
2022-07-25T05:26:07.051Z,9.30
2022-07-25T05:27:07.057Z,7.40
2022-07-25T05:28:07.035Z,7.70
2022-07-25T05:29:07.012Z,9.60
2022-07-25T05:30:07.037Z,9.20
2022-07-25T05:31:07.011Z,8.40
2022-07-25T05:32:06.964Z,9.20
2022-07-25T05:33:06.981Z,8.20
2022-07-25T05:34:07.314Z,8.60
2022-07-25T05:35:06.998Z,9.30
2022-07-25T05:36:06.945Z,8.00
2022-07-25T05:37:06.908Z,7.10
2022-07-25T05:38:06.928Z,7.30
2022-07-25T05:39:06.865Z,7.40
2022-07-25T05:40:06.866Z,8.10
2022-07-25T05:41:06.885Z,8.50
2022-07-25T05:42:06.853Z,6.90
2022-07-25T05:43:06.850Z,7.00
2022-07-25T05:44:07.266Z,7.20
2022-07-25T05:45:06.798Z,8.70
2022-07-25T05:46:06.806Z,7.30
2022-07-25T05:47:06.817Z,6.70
2022-07-25T05:48:06.768Z,7.20
2022-07-25T05:49:06.832Z,7.30
2022-07-25T05:50:06.728Z,8.00
2022-07-25T05:51:06.734Z,7.80
2022-07-25T05:52:12.479Z,8.10
2022-07-25T05:53:07.692Z,6.50
2022-07-25T05:54:07.037Z,7.50
2022-07-25T05:55:06.682Z,7.30
2022-07-25T05:56:06.663Z,9.20
2022-07-25T05:57:06.622Z,9.00
2022-07-25T05:58:06.659Z,7.70
2022-07-25T05:59:06.616Z,8.10
2022-07-25T06:00:06.605Z,7.90
2022-07-25T06:01:06.599Z,9.00
2022-07-25T06:02:06.674Z,6.60
2022-07-25T06:03:06.604Z,6.30
2022-07-25T06:04:07.120Z,6.80
2022-07-25T06:05:06.537Z,7.10
2022-07-25T06:06:06.530Z,10.30
2022-07-25T06:07:06.499Z,7.00
2022-07-25T06:08:06.496Z,6.80
2022-07-25T06:09:08.044Z,7.20
2022-07-25T06:10:06.501Z,7.00
2022-07-25T06:11:06.455Z,7.90
2022-07-25T06:12:06.435Z,6.90
2022-07-25T06:13:06.444Z,6.90
2022-07-25T06:14:06.604Z,8.90
2022-07-25T06:15:06.548Z,6.70
2022-07-25T06:16:06.509Z,6.60
2022-07-25T06:17:06.402Z,6.80
2022-07-25T06:18:06.416Z,8.00
2022-07-25T06:19:06.349Z,7.10
2022-07-25T06:20:06.333Z,7.70
2022-07-25T06:21:06.356Z,6.70
2022-07-25T06:22:06.323Z,6.20
2022-07-25T06:23:06.296Z,6.90
2022-07-25T06:24:06.740Z,9.20
2022-07-25T06:25:06.264Z,6.60
2022-07-25T06:26:06.266Z,7.70
2022-07-25T06:27:06.247Z,7.30
2022-07-25T06:28:06.237Z,11.70
2022-07-25T06:29:06.219Z,7.50
2022-07-25T06:30:06.664Z,7.90
2022-07-25T06:31:07.241Z,9.70
2022-07-25T06:32:06.304Z,6.80
2022-07-25T06:33:06.174Z,11.40
2022-07-25T06:34:06.440Z,6.50
2022-07-25T06:35:06.152Z,8.00
2022-07-25T06:36:06.139Z,6.80
2022-07-25T06:37:06.098Z,6.10
2022-07-25T06:38:06.212Z,6.80
2022-07-25T06:39:06.085Z,8.00
2022-07-25T06:40:06.071Z,6.60
2022-07-25T06:41:06.073Z,6.30
2022-07-25T06:42:06.039Z,7.50
2022-07-25T06:43:06.034Z,6.00
2022-07-25T06:44:06.303Z,6.30
2022-07-25T06:45:05.991Z,6.10
2022-07-25T06:46:05.995Z,6.40
2022-07-25T06:47:06.034Z,6.30
2022-07-25T06:48:05.960Z,8.80
2022-07-25T06:49:06.145Z,6.20
2022-07-25T06:50:05.933Z,9.20
2022-07-25T06:51:05.927Z,6.70
2022-07-25T06:52:05.941Z,6.50
2022-07-25T06:53:05.903Z,7.90
2022-07-25T06:54:06.303Z,6.00
2022-07-25T06:55:05.976Z,8.60
2022-07-25T06:56:05.865Z,9.00
2022-07-25T06:57:05.857Z,6.10
2022-07-25T06:58:05.880Z,5.90
2022-07-25T06:59:05.830Z,6.30
2022-07-25T07:00:05.808Z,6.00
2022-07-25T07:01:05.846Z,9.10
2022-07-25T07:02:05.769Z,7.10
2022-07-25T07:03:05.824Z,6.30
2022-07-25T07:04:06.006Z,7.20
2022-07-25T07:05:05.740Z,5.80
2022-07-25T07:06:05.784Z,5.50
2022-07-25T07:07:05.704Z,7.50
2022-07-25T07:08:05.701Z,8.70
2022-07-25T07:09:05.686Z,8.60
2022-07-25T07:10:05.679Z,5.70
2022-07-25T07:11:05.684Z,7.80
2022-07-25T07:12:05.677Z,6.00
2022-07-25T07:13:05.643Z,8.60
2022-07-25T07:14:05.889Z,7.40
2022-07-25T07:15:05.625Z,9.40
2022-07-25T07:16:05.694Z,5.70
2022-07-25T07:17:05.579Z,5.80
2022-07-25T07:18:05.578Z,5.80
2022-07-25T07:19:05.844Z,6.70
2022-07-25T07:20:05.537Z,6.70
2022-07-25T07:21:05.532Z,5.50
2022-07-25T07:22:05.527Z,6.60
2022-07-25T07:23:05.587Z,5.70
2022-07-25T07:24:05.491Z,8.30
2022-07-25T07:25:06.465Z,6.10
2022-07-25T07:26:05.470Z,7.60
2022-07-25T07:27:05.450Z,8.10
2022-07-25T07:28:05.560Z,6.60
2022-07-25T07:29:05.740Z,8.50
2022-07-25T07:30:05.424Z,9.10
2022-07-25T07:31:16.449Z,8.80
2022-07-25T07:32:06.446Z,6.40
2022-07-25T07:33:05.382Z,5.90
2022-07-25T07:34:05.463Z,8.50
2022-07-25T07:35:05.348Z,7.10
2022-07-25T07:36:05.353Z,6.50
2022-07-25T07:37:05.323Z,6.10
2022-07-25T07:38:05.327Z,5.70
2022-07-25T07:39:05.613Z,7.50
2022-07-25T07:40:05.303Z,6.20
2022-07-25T07:41:05.279Z,7.20
2022-07-25T07:42:05.267Z,6.60
2022-07-25T07:43:05.247Z,7.90
2022-07-25T07:44:05.231Z,8.90
2022-07-25T07:45:05.219Z,7.10
2022-07-25T07:46:05.239Z,7.50
2022-07-25T07:47:05.205Z,7.50
2022-07-25T07:48:06.186Z,6.30
2022-07-25T07:49:05.559Z,5.60
2022-07-25T07:50:05.138Z,11.80
2022-07-25T07:51:05.254Z,7.60
2022-07-25T07:52:05.127Z,8.60
2022-07-25T07:53:05.091Z,5.10
2022-07-25T07:54:05.095Z,5.70
2022-07-25T07:55:05.061Z,5.80
2022-07-25T07:56:05.059Z,5.90
2022-07-25T07:57:05.095Z,7.30
2022-07-25T07:58:05.038Z,6.20
2022-07-25T07:59:05.386Z,7.90
2022-07-25T08:00:05.057Z,5.80
2022-07-25T08:01:05.000Z,5.90
2022-07-25T08:02:05.084Z,6.30
2022-07-25T08:04:21.804Z,8.30
2022-07-25T08:05:20.647Z,7.90
2022-07-25T08:06:17.693Z,8.40
2022-07-25T08:07:17.265Z,7.70
2022-07-25T08:08:31.124Z,5.00
2022-07-25T08:09:17.687Z,7.80
2022-07-25T08:10:22.137Z,6.80
2022-07-25T08:11:16.681Z,8.70
2022-07-25T08:12:16.692Z,7.30
2022-07-25T08:13:42.511Z,6.50
2022-07-25T08:14:19.151Z,7.30
2022-07-25T08:15:21.144Z,6.30
2022-07-25T08:16:22.389Z,8.80
2022-07-25T08:17:18.385Z,7.40
2022-07-25T08:18:16.902Z,6.60
2022-07-25T08:19:39.575Z,6.70
2022-07-25T08:20:36.915Z,5.50
2022-07-25T08:21:18.185Z,5.90
2022-07-25T08:22:18.220Z,6.90
2022-07-25T08:23:39.473Z,5.30
2022-07-25T08:24:18.123Z,5.10
2022-07-25T08:25:16.917Z,5.20
2022-07-25T08:26:16.472Z,5.70
2022-07-25T08:27:17.103Z,6.80
2022-07-25T08:28:18.749Z,6.00
2022-07-25T08:29:37.806Z,4.80
2022-07-25T08:30:17.907Z,4.90
2022-07-25T08:31:16.470Z,6.10
2022-07-25T08:32:16.441Z,7.20
2022-07-25T08:33:18.584Z,6.50
2022-07-25T08:34:26.057Z,5.50
2022-07-25T08:35:22.813Z,6.60
2022-07-25T08:36:16.135Z,4.60
2022-07-25T08:37:16.054Z,5.20
2022-07-25T08:38:16.785Z,4.70
2022-07-25T08:39:16.777Z,5.90
2022-07-25T08:40:17.772Z,6.80
2022-07-25T08:41:16.965Z,8.30
2022-07-25T08:42:17.004Z,4.50
2022-07-25T08:43:15.968Z,6.20
2022-07-25T08:44:15.996Z,6.00
2022-07-25T08:45:15.964Z,5.50
2022-07-25T08:46:15.976Z,5.80
2022-07-25T08:47:15.948Z,11.10
2022-07-25T08:48:15.903Z,8.50
2022-07-25T08:49:15.984Z,6.30
2022-07-25T08:50:15.895Z,5.10
2022-07-25T08:51:15.865Z,5.80
2022-07-25T08:52:15.896Z,8.70
2022-07-25T08:53:32.520Z,5.20
2022-07-25T08:54:16.836Z,5.60
2022-07-25T08:55:15.831Z,6.50
2022-07-25T08:56:22.541Z,5.60
2022-07-25T08:57:15.788Z,4.50
2022-07-25T08:58:15.809Z,5.60
2022-07-25T08:59:15.771Z,4.90
2022-07-25T09:00:15.763Z,6.60
2022-07-25T09:01:15.859Z,4.60
2022-07-25T09:02:15.841Z,7.20
2022-07-25T09:03:15.759Z,6.50
2022-07-25T09:04:15.734Z,4.60
2022-07-25T09:05:15.701Z,6.50
2022-07-25T09:06:15.673Z,9.60
2022-07-25T09:07:15.694Z,6.00
2022-07-25T09:08:15.667Z,4.70
2022-07-25T09:09:15.657Z,5.50
2022-07-25T09:10:15.694Z,6.30
2022-07-25T09:11:15.626Z,4.40
2022-07-25T09:12:15.605Z,8.10
2022-07-25T09:13:15.610Z,4.70
2022-07-25T09:14:15.735Z,8.10
2022-07-25T09:15:15.556Z,6.30
2022-07-25T09:16:15.621Z,7.40
2022-07-25T09:17:22.395Z,5.60
2022-07-25T09:18:16.969Z,7.50
2022-07-25T09:19:15.554Z,7.70
2022-07-25T09:20:18.507Z,5.80
2022-07-25T09:21:15.510Z,4.80
2022-07-25T09:22:15.502Z,9.10
2022-07-25T09:23:15.471Z,4.90
2022-07-25T09:24:15.474Z,6.90
2022-07-25T09:25:15.453Z,9.00
2022-07-25T09:26:15.449Z,6.30
2022-07-25T09:27:15.442Z,4.40
2022-07-25T09:28:15.419Z,5.80
2022-07-25T09:29:16.364Z,6.70
2022-07-25T09:30:15.607Z,8.60
2022-07-25T09:31:15.454Z,6.90
2022-07-25T09:32:15.378Z,4.40
2022-07-25T09:33:15.345Z,5.60
2022-07-25T09:34:15.336Z,8.40
2022-07-25T09:35:15.340Z,6.10
2022-07-25T09:36:15.337Z,7.50
2022-07-25T09:37:15.300Z,5.20
2022-07-25T09:38:15.289Z,6.70
2022-07-25T09:39:17.727Z,5.20
2022-07-25T09:40:15.284Z,8.00
2022-07-25T09:41:15.238Z,5.30
2022-07-25T09:42:15.270Z,6.00
2022-07-25T09:43:15.976Z,6.70
2022-07-25T09:44:15.232Z,5.80
2022-07-25T09:45:15.180Z,6.60
2022-07-25T09:46:15.231Z,7.90
2022-07-25T09:47:15.162Z,8.20
2022-07-25T09:48:15.169Z,5.20
2022-07-25T09:49:15.196Z,7.30
2022-07-25T09:50:15.147Z,6.10
2022-07-25T09:51:15.114Z,7.30
2022-07-25T09:52:15.122Z,4.90
2022-07-25T09:53:15.212Z,7.20
2022-07-25T09:54:15.064Z,6.90
2022-07-25T09:55:15.078Z,7.10
2022-07-25T09:56:15.082Z,6.00
2022-07-25T09:57:15.055Z,4.40
2022-07-25T09:58:15.039Z,6.10
2022-07-25T09:59:15.042Z,6.10
2022-07-25T10:00:19.263Z,6.00
2022-07-25T10:01:15.045Z,7.90
2022-07-25T10:02:15.029Z,7.20
2022-07-25T10:03:14.941Z,5.00
2022-07-25T10:04:14.973Z,9.80
2022-07-25T10:05:14.942Z,8.60
2022-07-25T10:06:14.943Z,4.70
2022-07-25T10:07:14.905Z,7.10
2022-07-25T10:08:14.902Z,6.00
2022-07-25T10:09:14.890Z,5.30
2022-07-25T10:10:14.913Z,5.30
2022-07-25T10:11:14.860Z,6.40
2022-07-25T10:12:14.864Z,5.10
2022-07-25T10:13:14.814Z,6.10
2022-07-25T10:14:14.820Z,5.90
2022-07-25T10:15:14.845Z,8.50
2022-07-25T10:16:14.798Z,4.70
2022-07-25T10:17:14.809Z,5.90
2022-07-25T10:18:14.777Z,8.90
2022-07-25T10:19:14.767Z,5.10
2022-07-25T10:20:14.727Z,8.00
2022-07-25T10:21:25.683Z,8.70
2022-07-25T10:22:15.744Z,4.80
2022-07-25T10:23:14.706Z,6.90
2022-07-25T10:24:14.713Z,5.10
2022-07-25T10:25:14.670Z,7.90
2022-07-25T10:26:14.665Z,7.50
2022-07-25T10:27:14.694Z,6.10
2022-07-25T10:28:14.642Z,8.10
2022-07-25T10:29:14.634Z,9.50
2022-07-25T10:30:14.635Z,6.70
2022-07-25T10:31:14.662Z,5.00
2022-07-25T10:32:14.606Z,7.90
2022-07-25T10:33:14.579Z,4.70
2022-07-25T10:34:14.582Z,6.80
2022-07-25T10:35:14.555Z,5.90
2022-07-25T10:36:14.547Z,5.70
2022-07-25T10:37:14.530Z,5.00
2022-07-25T10:38:14.561Z,4.40
2022-07-25T10:39:14.495Z,8.20
2022-07-25T10:40:14.500Z,4.70
2022-07-25T10:41:14.474Z,7.30
2022-07-25T10:42:14.471Z,5.80
2022-07-25T10:43:14.454Z,5.80
2022-07-25T10:44:14.538Z,4.80
2022-07-25T10:45:14.438Z,4.90
2022-07-25T10:46:14.547Z,6.60
2022-07-25T10:47:14.398Z,4.90
2022-07-25T10:48:14.381Z,6.50
2022-07-25T10:49:14.437Z,7.80
2022-07-25T10:50:29.343Z,4.10
2022-07-25T10:51:15.343Z,6.20
2022-07-25T10:52:14.354Z,6.30
2022-07-25T10:53:14.304Z,4.80
2022-07-25T10:54:14.295Z,6.60
2022-07-25T10:55:14.297Z,7.30
2022-07-25T10:56:14.276Z,4.40
2022-07-25T10:57:14.279Z,4.90
2022-07-25T10:58:18.360Z,5.70
2022-07-25T10:59:14.245Z,4.00
2022-07-25T11:00:14.249Z,5.00
2022-07-25T11:01:14.307Z,5.50
2022-07-25T11:02:14.252Z,7.30
2022-07-25T11:03:18.191Z,4.20
2022-07-25T11:04:14.199Z,5.60
2022-07-25T11:05:14.168Z,4.40
2022-07-25T11:06:14.166Z,6.60
2022-07-25T11:07:14.190Z,9.20
2022-07-25T11:08:22.591Z,4.70
2022-07-25T11:09:18.488Z,4.20
2022-07-25T11:10:14.132Z,4.20
2022-07-25T11:11:14.071Z,6.40
2022-07-25T11:12:14.084Z,7.80
2022-07-25T11:13:14.180Z,4.20
2022-07-25T11:14:14.061Z,7.00
2022-07-25T11:15:17.210Z,6.80
2022-07-25T11:16:14.067Z,5.70
2022-07-25T11:17:14.092Z,3.80
2022-07-25T11:18:14.037Z,5.30
2022-07-25T11:19:13.995Z,5.00
2022-07-25T11:20:13.985Z,4.90
2022-07-25T11:21:13.984Z,4.80
2022-07-25T11:22:13.959Z,3.70
2022-07-25T11:23:13.937Z,4.50
2022-07-25T11:24:13.971Z,6.30
2022-07-25T11:25:13.920Z,6.20
2022-07-25T11:26:13.907Z,8.50
2022-07-25T11:27:13.902Z,5.00
2022-07-25T11:28:13.888Z,4.80
2022-07-25T11:29:13.865Z,3.80
2022-07-25T11:30:13.911Z,4.60
2022-07-25T11:31:13.846Z,7.20
2022-07-25T11:32:13.921Z,4.10
2022-07-25T11:33:17.379Z,5.90
2022-07-25T11:34:13.812Z,4.30
2022-07-25T11:35:13.815Z,4.90
2022-07-25T11:36:13.834Z,4.60
2022-07-25T11:37:13.921Z,8.00
2022-07-25T11:38:13.745Z,7.40
2022-07-25T11:39:18.603Z,7.40
2022-07-25T11:40:14.726Z,5.50
2022-07-25T11:41:13.738Z,4.10
2022-07-25T11:42:13.750Z,9.40
2022-07-25T11:43:13.740Z,7.70
2022-07-25T11:44:13.680Z,7.70
2022-07-25T11:45:13.678Z,6.20
2022-07-25T11:46:13.715Z,7.30
2022-07-25T11:47:13.654Z,5.30
2022-07-25T11:48:13.650Z,5.00
2022-07-25T11:49:13.870Z,7.90
2022-07-25T11:50:13.611Z,5.90
2022-07-25T11:51:18.143Z,6.20
2022-07-25T11:52:14.583Z,8.30
2022-07-25T11:53:13.574Z,6.10
2022-07-25T11:54:13.583Z,10.70
2022-07-25T11:55:13.551Z,6.80
2022-07-25T11:56:39.835Z,5.70
2022-07-25T11:57:17.457Z,10.60
2022-07-25T11:58:13.506Z,6.60
2022-07-25T11:59:13.522Z,5.90
2022-07-25T12:00:13.486Z,6.60
2022-07-25T12:01:13.489Z,8.10
2022-07-25T12:02:13.573Z,4.70
2022-07-25T12:03:19.161Z,5.30
2022-07-25T12:04:14.475Z,6.20
2022-07-25T12:05:13.422Z,5.00
2022-07-25T12:06:13.407Z,7.30
2022-07-25T12:07:13.425Z,9.40
2022-07-25T12:08:13.383Z,6.80
2022-07-25T12:09:18.265Z,5.70
2022-07-25T12:10:14.496Z,7.80
2022-07-25T12:11:13.351Z,8.50
2022-07-25T12:12:13.320Z,5.70
2022-07-25T12:13:13.342Z,6.40
2022-07-25T12:14:13.316Z,6.10
2022-07-25T12:15:13.291Z,7.50
2022-07-25T12:16:13.356Z,8.60
2022-07-25T12:17:13.311Z,7.50
2022-07-25T12:18:13.235Z,5.20
2022-07-25T12:19:13.248Z,9.60
2022-07-25T12:20:13.222Z,7.80
2022-07-25T12:21:13.219Z,5.90
2022-07-25T12:22:13.217Z,8.00
2022-07-25T12:23:13.225Z,6.90
2022-07-25T12:24:13.163Z,5.20
2022-07-25T12:25:13.169Z,7.00
2022-07-25T12:26:13.151Z,5.60
2022-07-25T12:27:13.128Z,5.10
2022-07-25T12:28:13.170Z,7.80
2022-07-25T12:29:13.108Z,7.00
2022-07-25T12:30:13.096Z,4.20
2022-07-25T12:31:13.197Z,8.60
2022-07-25T12:32:13.062Z,5.10
2022-07-25T12:33:13.121Z,5.50
2022-07-25T12:34:13.064Z,7.90
2022-07-25T12:35:13.044Z,8.70
2022-07-25T12:36:13.037Z,6.00
2022-07-25T12:37:13.011Z,8.00
2022-07-25T12:38:12.993Z,5.40
2022-07-25T12:39:13.116Z,4.30
2022-07-25T12:40:12.963Z,6.10
2022-07-25T12:41:17.674Z,10.30
2022-07-25T12:42:13.959Z,7.40
2022-07-25T12:43:12.947Z,6.60
2022-07-25T12:44:12.929Z,10.20
2022-07-25T12:45:12.956Z,5.80
2022-07-25T12:46:13.094Z,5.20
2022-07-25T12:47:12.907Z,6.40
2022-07-25T12:48:12.878Z,8.30
2022-07-25T12:49:12.969Z,8.50
2022-07-25T12:50:12.862Z,9.80
2022-07-25T12:51:12.839Z,6.90
2022-07-25T12:52:12.840Z,7.20
2022-07-25T12:53:12.807Z,8.00
2022-07-25T12:54:12.791Z,4.40
2022-07-25T12:55:12.801Z,6.00
2022-07-25T12:56:12.814Z,6.10
2022-07-25T12:57:12.822Z,9.20
2022-07-25T12:58:12.740Z,5.70
2022-07-25T12:59:31.076Z,7.10
2022-07-25T13:00:27.892Z,7.10
2022-07-25T13:01:12.783Z,8.90
2022-07-25T13:02:12.904Z,13.40
2022-07-25T13:03:12.694Z,6.30
2022-07-25T13:04:12.690Z,5.10
2022-07-25T13:05:12.670Z,8.80
2022-07-25T13:06:12.638Z,7.10
2022-07-25T13:07:36.002Z,6.60
2022-07-25T13:08:12.617Z,8.80
2022-07-25T13:09:12.633Z,4.70
2022-07-25T13:10:12.641Z,6.80
2022-07-25T13:11:12.600Z,6.70
2022-07-25T13:12:16.373Z,5.80
2022-07-25T13:13:12.596Z,6.50
2022-07-25T13:17:59.906Z,6.20